KJRB/JRB METAR and TAF weather

Enter ICAO airport designator
Station Type Date Time Source
KJRB METAR 2024/06/14 01:56 UTC NOAA

KJRB 140156Z AUTO 26007KT 10SM CLR 24/16 A2998 RMK AO2 SLP151 T02390161 PNO $


Station Type Date Time Source
KJRB Decoded METAR 2024/06/14 01:56 UTC NOAA

Station name not available
Jun 13, 2024 - 09:56 PM EDT / 2024.06.14 0156 UTC
Wind: from the W (260 degrees) at 8 MPH (7 KT):0
Visibility: 10 mile(s):0
Sky conditions: clear
Temperature: 75.0 F (23.9 C)
Dew Point: 61.0 F (16.1 C)
Relative Humidity: 61%
Pressure (altimeter): 29.98 in. Hg (1015 hPa)
ob: KJRB 140156Z AUTO 26007KT 10SM CLR 24/16 A2998 RMK AO2 SLP151 T02390161 PNO
cycle: 2

Station Type Date Time Source
KJRB TAF UTC NOAA

Error!

Example: see airport list